createdAt,value
2023-03-29T00:01:35.983Z,3.29
2023-03-29T00:06:35.414Z,3.00
2023-03-29T00:11:34.218Z,3.07
2023-03-29T00:16:33.107Z,2.69
2023-03-29T00:21:32.221Z,2.82
2023-03-29T00:26:31.162Z,2.94
2023-03-29T00:31:30.301Z,3.01
2023-03-29T00:36:29.316Z,2.56
2023-03-29T00:41:28.462Z,2.61
2023-03-29T00:46:29.842Z,2.47
2023-03-29T00:51:33.018Z,2.75
2023-03-29T00:56:39.975Z,2.64
2023-03-29T01:01:48.347Z,2.57
2023-03-29T01:06:54.179Z,2.44
2023-03-29T01:11:56.297Z,2.65
2023-03-29T01:16:56.140Z,2.63
2023-03-29T01:22:30.561Z,2.39
2023-03-29T01:27:54.091Z,2.53
2023-03-29T01:33:00.357Z,2.50
2023-03-29T01:38:07.511Z,2.34
2023-03-29T01:43:09.413Z,2.71
2023-03-29T01:48:16.462Z,2.77
2023-03-29T01:53:27.212Z,2.51
2023-03-29T01:58:33.958Z,2.36
2023-03-29T02:03:42.297Z,2.46
2023-03-29T02:08:42.287Z,2.42
2023-03-29T02:13:41.600Z,2.60
2023-03-29T02:18:44.059Z,2.32
2023-03-29T02:23:46.647Z,2.75
2023-03-29T02:28:45.819Z,2.49
2023-03-29T02:33:57.207Z,2.33
2023-03-29T02:38:58.778Z,2.59
2023-03-29T02:44:00.488Z,2.56
2023-03-29T02:49:00.284Z,2.78
2023-03-29T02:54:01.750Z,2.58
2023-03-29T02:59:00.640Z,2.77
2023-03-29T03:03:59.462Z,2.77
2023-03-29T03:08:58.236Z,2.59
2023-03-29T03:13:57.441Z,2.47
2023-03-29T03:18:56.311Z,2.47
2023-03-29T03:23:55.702Z,2.84
2023-03-29T03:28:54.986Z,2.56
2023-03-29T03:34:13.961Z,2.54
2023-03-29T03:39:20.764Z,2.99
2023-03-29T03:44:20.521Z,3.08
2023-03-29T03:49:28.173Z,2.92
2023-03-29T03:54:27.377Z,2.91
2023-03-29T03:59:44.972Z,2.80
2023-03-29T04:04:49.166Z,2.89
2023-03-29T04:09:50.912Z,2.68
2023-03-29T04:15:03.979Z,3.00
2023-03-29T04:20:10.307Z,2.93
2023-03-29T04:25:11.781Z,2.86
2023-03-29T04:30:19.343Z,2.73
2023-03-29T04:35:43.601Z,2.85
2023-03-29T04:40:46.397Z,2.66
2023-03-29T04:46:07.856Z,2.91
2023-03-29T04:51:45.050Z,2.95
2023-03-29T04:56:44.175Z,3.24
2023-03-29T05:02:07.391Z,3.12
2023-03-29T05:07:08.740Z,3.10
2023-03-29T05:12:08.482Z,3.44
2023-03-29T05:17:19.304Z,3.39
2023-03-29T05:22:20.204Z,3.53
2023-03-29T05:27:19.234Z,3.35
2023-03-29T05:32:30.673Z,3.48
2023-03-29T05:37:29.880Z,3.50
2023-03-29T05:42:32.077Z,3.71
2023-03-29T05:47:36.977Z,3.89
2023-03-29T05:52:37.988Z,3.71
2023-03-29T05:57:37.751Z,3.79
2023-03-29T06:02:37.001Z,3.68
2023-03-29T06:07:42.859Z,3.90
2023-03-29T06:13:10.977Z,3.84
2023-03-29T06:18:10.928Z,3.98
2023-03-29T06:23:10.491Z,4.30
2023-03-29T06:28:09.886Z,4.74
2023-03-29T06:33:10.478Z,4.93
2023-03-29T06:38:21.419Z,4.88
2023-03-29T06:43:28.972Z,4.61
2023-03-29T06:48:39.234Z,4.85
2023-03-29T06:53:38.073Z,4.90
2023-03-29T06:58:37.694Z,4.99
2023-03-29T07:03:48.918Z,4.79
2023-03-29T07:08:52.516Z,4.71
2023-03-29T07:14:10.703Z,10.42
2023-03-29T07:19:10.773Z,10.86
2023-03-29T07:24:36.931Z,11.10
2023-03-29T07:29:36.144Z,11.52
2023-03-29T07:34:35.470Z,9.28
2023-03-29T07:39:35.410Z,7.07
2023-03-29T07:45:04.816Z,6.29
2023-03-29T07:50:10.686Z,6.09
2023-03-29T07:55:11.668Z,6.08
2023-03-29T08:00:45.890Z,5.87
2023-03-29T08:06:05.101Z,6.14
2023-03-29T08:11:04.589Z,5.77
2023-03-29T08:16:26.930Z,5.68
2023-03-29T08:21:46.219Z,5.27
2023-03-29T08:26:46.315Z,5.42
2023-03-29T08:31:50.196Z,5.93
2023-03-29T08:36:49.200Z,5.58
2023-03-29T08:42:00.869Z,5.77
2023-03-29T08:47:07.269Z,6.15
2023-03-29T08:52:31.223Z,6.00
2023-03-29T08:57:41.202Z,6.15
2023-03-29T09:02:45.891Z,6.91
2023-03-29T09:07:44.873Z,6.90
2023-03-29T09:13:02.585Z,7.36
2023-03-29T09:18:16.195Z,7.56
2023-03-29T09:23:15.262Z,8.06
2023-03-29T09:29:04.539Z,7.88
2023-03-29T09:34:41.883Z,7.96
2023-03-29T09:39:48.151Z,7.74
2023-03-29T09:45:02.051Z,7.75
2023-03-29T09:50:34.093Z,7.91
2023-03-29T09:55:39.659Z,8.07
2023-03-29T10:00:48.289Z,8.30
2023-03-29T10:06:05.253Z,7.94
2023-03-29T10:11:19.418Z,7.92
2023-03-29T10:16:28.707Z,8.02
2023-03-29T10:21:43.395Z,9.16
2023-03-29T10:26:46.067Z,9.36
2023-03-29T10:31:45.176Z,8.70
2023-03-29T10:36:52.237Z,9.40
2023-03-29T10:41:52.883Z,9.05
2023-03-29T10:46:52.155Z,9.58
2023-03-29T10:51:52.660Z,9.70
2023-03-29T10:57:08.244Z,9.46
2023-03-29T11:02:17.893Z,9.21
2023-03-29T11:07:28.849Z,9.15
2023-03-29T11:12:39.372Z,9.32
2023-03-29T11:18:01.901Z,9.11
2023-03-29T11:23:42.951Z,9.75
2023-03-29T11:28:59.880Z,9.85
2023-03-29T11:34:24.852Z,9.87
2023-03-29T11:39:23.632Z,10.32
2023-03-29T11:44:27.456Z,10.22
2023-03-29T11:49:26.395Z,10.31
2023-03-29T11:54:41.181Z,10.17
2023-03-29T11:59:59.194Z,9.84
2023-03-29T12:05:02.461Z,9.79
2023-03-29T12:10:22.103Z,9.66
2023-03-29T12:15:25.013Z,10.33
2023-03-29T12:20:28.409Z,10.67
2023-03-29T12:25:37.628Z,10.60
2023-03-29T12:30:48.616Z,10.48
2023-03-29T12:36:09.011Z,10.70
2023-03-29T12:41:28.378Z,10.21
2023-03-29T12:46:46.344Z,10.30
2023-03-29T12:51:45.949Z,10.83
2023-03-29T12:56:58.473Z,10.78
2023-03-29T13:02:18.315Z,10.71
2023-03-29T13:07:23.423Z,11.05
2023-03-29T13:12:31.421Z,11.31
2023-03-29T13:17:35.286Z,10.86
2023-03-29T13:22:44.500Z,11.17
2023-03-29T13:27:57.954Z,10.88
2023-03-29T13:33:10.950Z,11.22
2023-03-29T13:38:21.922Z,11.25
2023-03-29T13:43:34.448Z,10.75
2023-03-29T13:49:03.829Z,10.84
2023-03-29T13:54:17.876Z,11.35
2023-03-29T13:59:24.422Z,11.96
2023-03-29T14:04:30.609Z,11.73
2023-03-29T14:09:32.930Z,11.87
2023-03-29T14:14:33.123Z,11.85
2023-03-29T14:19:35.369Z,12.19
2023-03-29T14:24:39.002Z,12.35
2023-03-29T14:29:37.808Z,12.36
2023-03-29T14:34:37.451Z,11.91
2023-03-29T14:39:36.678Z,12.63
2023-03-29T14:44:35.502Z,12.78
2023-03-29T14:49:41.119Z,12.78
2023-03-29T14:54:47.428Z,12.43
2023-03-29T14:59:57.182Z,12.33
2023-03-29T15:05:05.663Z,12.26
2023-03-29T15:10:06.534Z,12.15
2023-03-29T15:15:10.451Z,12.09
2023-03-29T15:20:21.587Z,11.87
2023-03-29T15:25:21.587Z,11.86
2023-03-29T15:30:20.550Z,11.54
2023-03-29T15:35:24.791Z,11.60
2023-03-29T15:40:28.257Z,11.57
2023-03-29T15:45:27.535Z,11.47
2023-03-29T15:50:26.523Z,11.54
2023-03-29T15:55:29.603Z,11.19
2023-03-29T16:00:28.651Z,11.53
2023-03-29T16:05:27.556Z,11.69
2023-03-29T16:10:26.321Z,11.54
2023-03-29T16:15:27.248Z,11.79
2023-03-29T16:20:26.560Z,11.14
2023-03-29T16:25:25.695Z,11.24
2023-03-29T16:30:25.036Z,10.85
2023-03-29T16:35:31.093Z,10.91
2023-03-29T16:40:30.279Z,10.85
2023-03-29T16:45:29.642Z,10.57
2023-03-29T16:50:28.514Z,10.47
2023-03-29T16:55:28.468Z,10.40
2023-03-29T17:00:27.301Z,10.04
2023-03-29T17:05:26.437Z,10.02
2023-03-29T17:10:25.716Z,9.97
2023-03-29T17:15:24.761Z,10.00
2023-03-29T17:20:23.508Z,9.99
2023-03-29T17:25:23.388Z,9.75
2023-03-29T17:30:22.239Z,9.60
2023-03-29T17:35:21.451Z,9.79
2023-03-29T17:40:21.392Z,9.81
2023-03-29T17:45:20.349Z,9.80
2023-03-29T17:50:19.230Z,9.79
2023-03-29T17:55:18.377Z,9.45
2023-03-29T18:00:18.099Z,9.64
2023-03-29T18:05:16.965Z,9.69
2023-03-29T18:10:15.874Z,9.55
2023-03-29T18:15:14.606Z,9.37
2023-03-29T18:20:14.040Z,8.97
2023-03-29T18:25:12.886Z,9.06
2023-03-29T18:30:13.912Z,9.54
2023-03-29T18:35:12.847Z,9.32
2023-03-29T18:40:11.969Z,9.44
2023-03-29T18:45:11.590Z,9.39
2023-03-29T18:50:12.366Z,9.52
2023-03-29T18:55:11.502Z,9.07
2023-03-29T19:00:12.022Z,9.36
2023-03-29T19:05:11.286Z,9.18
2023-03-29T19:10:10.394Z,9.12
2023-03-29T19:15:10.101Z,9.04
2023-03-29T19:20:12.722Z,9.22
2023-03-29T19:25:11.808Z,8.80
2023-03-29T19:30:11.106Z,8.84
2023-03-29T19:35:10.392Z,9.06
2023-03-29T19:40:12.448Z,8.96
2023-03-29T19:45:11.266Z,9.18
2023-03-29T19:50:12.312Z,9.08
2023-03-29T19:55:11.293Z,8.61
2023-03-29T20:00:10.808Z,8.93
2023-03-29T20:05:12.552Z,8.59
2023-03-29T20:10:11.435Z,8.46
2023-03-29T20:15:10.679Z,8.44
2023-03-29T20:20:10.417Z,8.61
2023-03-29T20:25:09.538Z,8.50
2023-03-29T20:30:09.946Z,8.63
2023-03-29T20:35:09.669Z,8.77
2023-03-29T20:40:09.444Z,8.78
2023-03-29T20:45:08.891Z,8.82
2023-03-29T20:50:08.829Z,8.72
2023-03-29T20:55:07.797Z,8.58
2023-03-29T21:00:12.436Z,8.41
2023-03-29T21:05:11.390Z,8.59
2023-03-29T21:10:13.787Z,8.40
2023-03-29T21:15:13.580Z,8.39
2023-03-29T21:20:13.467Z,8.23
2023-03-29T21:25:15.619Z,8.20
2023-03-29T21:30:14.642Z,8.44
2023-03-29T21:35:13.595Z,8.19
2023-03-29T21:40:13.054Z,8.09
2023-03-29T21:45:12.088Z,8.22
2023-03-29T21:50:11.610Z,8.10
2023-03-29T21:55:10.513Z,8.29
2023-03-29T22:00:11.285Z,8.24
2023-03-29T22:05:10.224Z,8.25
2023-03-29T22:10:11.589Z,8.30
2023-03-29T22:15:12.852Z,8.30
2023-03-29T22:20:15.280Z,7.98
2023-03-29T22:25:14.260Z,8.10
2023-03-29T22:30:15.661Z,8.14
2023-03-29T22:35:14.639Z,7.96
2023-03-29T22:40:13.799Z,8.03
2023-03-29T22:45:12.647Z,8.05
2023-03-29T22:50:11.546Z,7.92
2023-03-29T22:55:10.528Z,7.76
2023-03-29T23:00:10.515Z,7.84
2023-03-29T23:05:09.486Z,8.01
2023-03-29T23:10:08.918Z,7.71
2023-03-29T23:15:08.877Z,7.84
2023-03-29T23:20:10.758Z,7.80
2023-03-29T23:25:09.623Z,8.00
2023-03-29T23:30:08.897Z,7.90
2023-03-29T23:35:07.938Z,7.64
2023-03-29T23:40:14.462Z,7.69
2023-03-29T23:45:18.176Z,7.85
2023-03-29T23:50:17.158Z,7.77
2023-03-29T23:55:16.152Z,8.04
